createdAt,value
2022-08-25T00:00:21.409Z,25.00
2022-08-25T00:03:05.042Z,25.23
2022-08-25T00:05:33.599Z,25.06
2022-08-25T00:08:04.011Z,24.05
2022-08-25T00:10:35.345Z,23.28
2022-08-25T00:13:05.074Z,23.91
2022-08-25T00:15:33.210Z,24.56
2022-08-25T00:18:01.919Z,24.90
2022-08-25T00:20:30.049Z,25.14
2022-08-25T00:22:58.598Z,25.09
2022-08-25T00:25:27.140Z,24.09
2022-08-25T00:27:57.471Z,23.10
2022-08-25T00:30:25.641Z,22.73
2022-08-25T00:32:57.326Z,23.74
2022-08-25T00:35:26.755Z,24.53
2022-08-25T00:37:55.174Z,24.81
2022-08-25T00:40:26.294Z,24.95
2022-08-25T00:42:56.223Z,24.85
2022-08-25T00:45:25.022Z,23.75
2022-08-25T00:47:53.032Z,23.02
2022-08-25T00:50:22.897Z,23.78
2022-08-25T00:52:59.096Z,24.53
2022-08-25T00:55:31.443Z,24.91
2022-08-25T00:58:14.744Z,25.08
2022-08-25T01:00:47.436Z,24.92
2022-08-25T01:03:19.338Z,23.73
2022-08-25T01:05:48.081Z,23.09
2022-08-25T01:08:21.467Z,23.81
2022-08-25T01:10:51.252Z,24.56
2022-08-25T01:13:21.526Z,25.09
2022-08-25T01:15:53.657Z,25.36
2022-08-25T01:18:22.340Z,25.19
2022-08-25T01:20:52.916Z,24.07
2022-08-25T01:23:22.191Z,23.40
2022-08-25T01:26:07.878Z,24.08
2022-08-25T01:28:37.452Z,24.83
2022-08-25T01:31:05.469Z,25.19
2022-08-25T01:33:52.547Z,24.98
2022-08-25T01:36:22.104Z,23.81
2022-08-25T01:38:50.654Z,23.09
2022-08-25T01:41:31.855Z,23.77
2022-08-25T01:44:00.572Z,24.41
2022-08-25T01:46:28.780Z,24.55
2022-08-25T01:48:56.736Z,24.64
2022-08-25T01:51:28.225Z,24.68
2022-08-25T01:53:56.205Z,24.72
2022-08-25T01:56:24.241Z,24.89
2022-08-25T01:58:53.574Z,25.05
2022-08-25T02:01:24.566Z,25.30
2022-08-25T02:03:55.419Z,25.35
2022-08-25T02:06:30.018Z,24.28
2022-08-25T02:09:01.564Z,23.63
2022-08-25T02:11:29.906Z,24.41
2022-08-25T02:13:59.243Z,25.07
2022-08-25T02:16:31.303Z,25.48
2022-08-25T02:19:00.181Z,25.76
2022-08-25T02:21:28.642Z,25.55
2022-08-25T02:23:57.202Z,24.30
2022-08-25T02:26:25.560Z,23.52
2022-08-25T02:28:53.609Z,24.24
2022-08-25T02:31:23.677Z,24.98
2022-08-25T02:33:53.109Z,25.32
2022-08-25T02:36:21.325Z,25.13
2022-08-25T02:38:49.699Z,23.95
2022-08-25T02:41:20.998Z,23.21
2022-08-25T02:43:50.078Z,23.83
2022-08-25T02:46:20.335Z,24.35
2022-08-25T02:48:48.781Z,24.58
2022-08-25T02:51:17.028Z,24.63
2022-08-25T02:53:47.154Z,24.62
2022-08-25T02:56:16.565Z,24.68
2022-08-25T02:58:46.077Z,24.76
2022-08-25T03:01:15.781Z,24.86
2022-08-25T03:03:46.111Z,24.98
2022-08-25T03:06:18.994Z,25.23
2022-08-25T03:08:47.239Z,25.48
2022-08-25T03:11:15.206Z,25.69
2022-08-25T03:13:43.200Z,25.63
2022-08-25T03:16:12.449Z,24.61
2022-08-25T03:18:42.540Z,23.92
2022-08-25T03:21:12.468Z,24.56
2022-08-25T03:23:41.963Z,25.15
2022-08-25T03:26:28.617Z,25.44
2022-08-25T03:28:57.248Z,25.60
2022-08-25T03:31:28.703Z,25.57
2022-08-25T03:33:56.733Z,25.54
2022-08-25T03:36:25.681Z,25.48
2022-08-25T03:38:54.019Z,25.39
2022-08-25T03:41:28.055Z,25.14
2022-08-25T03:43:57.500Z,25.04
2022-08-25T03:46:34.466Z,25.03
2022-08-25T03:49:06.706Z,25.13
2022-08-25T03:51:43.061Z,25.25
2022-08-25T03:54:11.814Z,25.45
2022-08-25T03:56:40.485Z,25.66
2022-08-25T03:59:10.068Z,25.78
2022-08-25T04:01:40.535Z,25.64
2022-08-25T04:04:10.569Z,24.48
2022-08-25T04:06:40.060Z,23.76
2022-08-25T04:09:08.479Z,24.45
2022-08-25T04:11:37.053Z,25.18
2022-08-25T04:14:05.940Z,25.57
2022-08-25T04:16:35.383Z,25.75
2022-08-25T04:19:08.091Z,25.96
2022-08-25T04:21:38.967Z,25.89
2022-08-25T04:24:09.989Z,24.78
2022-08-25T04:26:42.636Z,24.03
2022-08-25T04:29:12.209Z,24.71
2022-08-25T04:31:42.068Z,25.35
2022-08-25T04:34:28.370Z,25.71
2022-08-25T04:37:03.299Z,25.94
2022-08-25T04:39:32.194Z,26.13
2022-08-25T04:42:01.100Z,26.37
2022-08-25T04:44:32.001Z,26.37
2022-08-25T04:47:00.567Z,25.38
2022-08-25T04:49:28.865Z,24.37
2022-08-25T04:51:57.697Z,24.01
2022-08-25T04:54:25.917Z,24.97
2022-08-25T04:56:58.414Z,25.78
2022-08-25T04:59:30.438Z,26.12
2022-08-25T05:02:03.480Z,26.20
2022-08-25T05:04:33.411Z,26.19
2022-08-25T05:07:02.279Z,26.18
2022-08-25T05:09:32.278Z,26.34
2022-08-25T05:12:02.870Z,26.26
2022-08-25T05:14:32.476Z,25.08
2022-08-25T05:17:00.991Z,24.38
2022-08-25T05:19:29.371Z,25.21
2022-08-25T05:21:57.791Z,26.05
2022-08-25T05:24:27.046Z,26.55
2022-08-25T05:26:55.171Z,26.84
2022-08-25T05:29:23.641Z,26.82
2022-08-25T05:31:51.902Z,25.86
2022-08-25T05:34:20.149Z,24.87
2022-08-25T05:36:49.222Z,24.51
2022-08-25T05:39:17.556Z,25.46
2022-08-25T05:41:45.538Z,26.28
2022-08-25T05:44:15.875Z,26.74
2022-08-25T05:46:45.951Z,26.79
2022-08-25T05:49:13.887Z,25.81
2022-08-25T05:51:41.833Z,25.18
2022-08-25T05:54:09.710Z,26.03
2022-08-25T05:56:37.740Z,26.81
2022-08-25T05:59:09.238Z,26.99
2022-08-25T06:01:56.585Z,26.02
2022-08-25T06:04:24.781Z,24.92
2022-08-25T06:06:55.054Z,24.69
2022-08-25T06:09:24.441Z,25.81
2022-08-25T06:11:55.213Z,26.68
2022-08-25T06:14:24.188Z,27.27
2022-08-25T06:16:56.085Z,27.63
2022-08-25T06:19:24.561Z,27.67
2022-08-25T06:21:57.286Z,26.81
2022-08-25T06:24:27.449Z,25.98
2022-08-25T06:26:56.617Z,25.81
2022-08-25T06:29:25.537Z,26.93
2022-08-25T06:31:53.597Z,27.69
2022-08-25T06:34:24.136Z,27.45
2022-08-25T06:36:55.422Z,26.44
2022-08-25T06:39:27.932Z,25.98
2022-08-25T06:41:56.950Z,26.89
2022-08-25T06:44:27.863Z,27.68
2022-08-25T06:46:55.976Z,27.91
2022-08-25T06:49:31.866Z,27.12
2022-08-25T06:52:04.011Z,26.19
2022-08-25T06:54:31.910Z,26.02
2022-08-25T06:56:59.825Z,27.15
2022-08-25T06:59:32.256Z,28.09
2022-08-25T07:02:07.696Z,28.30
2022-08-25T07:04:36.315Z,27.46
2022-08-25T07:07:04.683Z,26.61
2022-08-25T07:09:35.332Z,26.39
2022-08-25T07:12:08.898Z,27.43
2022-08-25T07:14:37.140Z,28.43
2022-08-25T07:17:10.593Z,28.68
2022-08-25T07:19:41.280Z,27.84
2022-08-25T07:22:09.561Z,27.05
2022-08-25T07:24:37.615Z,26.78
2022-08-25T07:27:05.670Z,27.84
2022-08-25T07:29:36.849Z,28.54
2022-08-25T07:32:15.869Z,27.89
2022-08-25T07:35:02.416Z,27.20
2022-08-25T07:37:47.700Z,26.58
2022-08-25T07:40:23.564Z,26.60
2022-08-25T07:42:56.863Z,27.85
2022-08-25T07:45:31.740Z,28.51
2022-08-25T07:48:11.356Z,27.90
2022-08-25T07:50:45.473Z,27.11
2022-08-25T07:53:15.349Z,26.97
2022-08-25T07:55:45.144Z,28.09
2022-08-25T07:58:15.811Z,28.71
2022-08-25T08:00:48.091Z,28.11
2022-08-25T08:03:35.316Z,27.40
2022-08-25T08:06:10.358Z,26.96
2022-08-25T08:08:42.675Z,27.15
2022-08-25T08:11:24.502Z,28.56
2022-08-25T08:14:46.285Z,29.40
2022-08-25T08:17:14.364Z,28.66
2022-08-25T08:19:46.543Z,27.97
2022-08-25T08:22:17.720Z,27.59
2022-08-25T08:24:54.578Z,27.37
2022-08-25T08:27:25.012Z,27.66
2022-08-25T08:29:53.839Z,29.02
2022-08-25T08:32:25.279Z,29.78
2022-08-25T08:34:59.863Z,29.32
2022-08-25T08:37:28.174Z,28.65
2022-08-25T08:39:56.451Z,28.15
2022-08-25T08:42:49.142Z,27.89
2022-08-25T08:45:30.210Z,27.67
2022-08-25T08:48:43.260Z,27.51
2022-08-25T08:51:19.512Z,28.07
2022-08-25T08:54:07.047Z,29.59
2022-08-25T08:56:48.109Z,30.25
2022-08-25T08:59:28.841Z,29.69
2022-08-25T09:02:01.886Z,29.22
2022-08-25T09:04:39.548Z,28.75
2022-08-25T09:07:14.623Z,28.40
2022-08-25T09:09:45.668Z,28.14
2022-08-25T09:12:21.899Z,27.86
2022-08-25T09:15:12.593Z,27.71
2022-08-25T09:17:54.612Z,27.69
2022-08-25T09:20:39.020Z,27.62
2022-08-25T09:23:06.898Z,27.67
2022-08-25T09:26:11.319Z,27.67
2022-08-25T09:28:51.743Z,27.75
2022-08-25T09:31:27.591Z,27.90
2022-08-25T09:34:01.353Z,28.55
2022-08-25T09:36:36.924Z,30.03
2022-08-25T09:39:07.561Z,30.03
2022-08-25T09:41:57.420Z,29.77
2022-08-25T09:44:41.546Z,29.51
2022-08-25T09:47:18.337Z,29.48
2022-08-25T09:49:51.882Z,29.54
2022-08-25T09:52:32.101Z,29.57
2022-08-25T09:55:06.294Z,29.56
2022-08-25T09:57:43.237Z,29.50
2022-08-25T10:00:27.739Z,29.48
2022-08-25T10:03:08.276Z,29.54
2022-08-25T10:05:49.488Z,29.68
2022-08-25T10:08:40.946Z,29.73
2022-08-25T10:11:14.778Z,29.82
2022-08-25T10:13:49.412Z,29.94
2022-08-25T10:16:34.076Z,30.09
2022-08-25T10:19:25.963Z,30.20
2022-08-25T10:22:32.593Z,30.35
2022-08-25T10:25:01.118Z,30.43
2022-08-25T10:27:52.800Z,30.42
2022-08-25T10:30:28.523Z,30.51
2022-08-25T10:33:24.684Z,30.69
2022-08-25T10:36:11.738Z,30.81
2022-08-25T10:38:43.105Z,30.93
2022-08-25T10:41:11.257Z,31.05
2022-08-25T10:43:52.094Z,31.15
2022-08-25T10:46:26.092Z,31.27
2022-08-25T10:49:23.866Z,31.31
2022-08-25T10:52:13.733Z,31.36
2022-08-25T10:55:03.365Z,31.34
2022-08-25T10:57:52.788Z,31.42
2022-08-25T11:00:31.384Z,31.51
2022-08-25T11:03:08.978Z,31.48
2022-08-25T11:05:55.848Z,31.52
2022-08-25T11:08:38.720Z,31.68
2022-08-25T11:11:21.635Z,31.80
2022-08-25T11:13:59.112Z,31.84
2022-08-25T11:17:07.648Z,31.82
2022-08-25T11:19:38.021Z,31.81
2022-08-25T11:22:24.107Z,31.89
2022-08-25T11:25:12.791Z,32.03
2022-08-25T11:27:57.736Z,32.11
2022-08-25T11:30:26.511Z,32.18
2022-08-25T11:32:56.213Z,32.24
2022-08-25T11:35:39.075Z,32.34
2022-08-25T11:38:35.897Z,32.50
2022-08-25T11:41:48.598Z,32.63
2022-08-25T11:44:53.687Z,32.69
2022-08-25T11:48:06.725Z,32.75
2022-08-25T11:50:53.971Z,32.79
2022-08-25T11:53:28.239Z,32.86
2022-08-25T11:56:04.472Z,32.97
2022-08-25T11:58:49.832Z,33.08
2022-08-25T12:01:40.290Z,33.14
2022-08-25T12:04:45.116Z,33.19
2022-08-25T12:07:22.020Z,33.29
2022-08-25T12:09:55.508Z,33.27
2022-08-25T12:12:23.323Z,33.26
2022-08-25T12:14:51.949Z,33.27
2022-08-25T12:17:37.445Z,33.28
2022-08-25T12:20:08.255Z,33.36
2022-08-25T12:22:36.234Z,33.50
2022-08-25T12:25:11.725Z,33.54
2022-08-25T12:28:00.714Z,33.51
2022-08-25T12:30:36.589Z,33.50
2022-08-25T12:33:34.146Z,33.63
2022-08-25T12:36:07.149Z,33.69
2022-08-25T12:38:52.275Z,33.72
2022-08-25T12:41:54.634Z,33.81
2022-08-25T12:44:47.360Z,33.96
2022-08-25T12:47:30.568Z,34.12
2022-08-25T12:50:37.048Z,34.33
2022-08-25T12:53:17.885Z,34.57
2022-08-25T12:55:53.046Z,34.72
2022-08-25T12:58:59.928Z,34.86
2022-08-25T13:02:07.810Z,34.90
2022-08-25T13:05:04.033Z,34.88
2022-08-25T13:07:39.646Z,34.76
2022-08-25T13:10:24.024Z,34.66
2022-08-25T13:13:33.545Z,34.50
2022-08-25T13:16:08.805Z,34.41
2022-08-25T13:18:39.731Z,34.45
2022-08-25T13:21:20.780Z,34.46
2022-08-25T13:23:54.126Z,34.44
2022-08-25T13:26:38.145Z,34.49
2022-08-25T13:29:22.318Z,34.60
2022-08-25T13:31:58.765Z,34.75
2022-08-25T13:34:34.750Z,34.85
2022-08-25T13:37:30.238Z,34.95
2022-08-25T13:40:25.931Z,35.07
2022-08-25T13:43:02.796Z,35.19
2022-08-25T13:45:47.839Z,35.35
2022-08-25T13:48:38.491Z,35.40
2022-08-25T13:51:36.848Z,35.39
2022-08-25T13:54:08.931Z,35.32
2022-08-25T13:56:41.597Z,35.30
2022-08-25T13:59:31.425Z,35.30
2022-08-25T14:02:00.258Z,35.30
2022-08-25T14:04:50.618Z,35.41
2022-08-25T14:07:20.187Z,35.55
2022-08-25T14:09:52.452Z,35.52
2022-08-25T14:13:15.911Z,35.52
2022-08-25T14:15:47.005Z,35.41
2022-08-25T14:18:27.139Z,35.45
2022-08-25T14:21:16.876Z,35.51
2022-08-25T14:23:58.974Z,35.53
2022-08-25T14:26:28.777Z,35.59
2022-08-25T14:28:56.820Z,35.64
2022-08-25T14:31:30.143Z,35.74
2022-08-25T14:33:59.622Z,35.71
2022-08-25T14:36:30.397Z,35.64
2022-08-25T14:39:00.251Z,35.69
2022-08-25T14:41:30.773Z,35.82
2022-08-25T14:43:59.042Z,35.96
2022-08-25T14:46:30.038Z,36.04
2022-08-25T14:49:11.940Z,36.12
2022-08-25T14:51:42.451Z,36.09
2022-08-25T14:54:15.131Z,36.06
2022-08-25T14:56:43.937Z,36.12
2022-08-25T14:59:12.209Z,36.08
2022-08-25T15:01:40.790Z,36.14
2022-08-25T15:04:16.008Z,36.25
2022-08-25T15:06:46.868Z,36.26
2022-08-25T15:09:16.761Z,36.11
2022-08-25T15:11:50.618Z,36.00
2022-08-25T15:14:28.814Z,35.86
2022-08-25T15:17:14.858Z,35.88
2022-08-25T15:19:47.718Z,35.94
2022-08-25T15:22:17.016Z,35.80
2022-08-25T15:24:45.257Z,35.62
2022-08-25T15:27:19.675Z,35.62
2022-08-25T15:29:48.266Z,35.63
2022-08-25T15:32:18.663Z,35.58
2022-08-25T15:34:46.835Z,35.43
2022-08-25T15:37:16.644Z,35.22
2022-08-25T15:39:46.771Z,35.09
2022-08-25T15:42:16.688Z,34.98
2022-08-25T15:44:52.880Z,34.96
2022-08-25T15:47:22.690Z,35.03
2022-08-25T15:49:51.608Z,34.98
2022-08-25T15:52:19.512Z,34.88
2022-08-25T15:54:47.561Z,34.72
2022-08-25T15:57:24.341Z,34.51
2022-08-25T15:59:53.204Z,34.35
2022-08-25T16:02:22.085Z,34.24
2022-08-25T16:04:51.595Z,34.23
2022-08-25T16:07:20.336Z,34.31
2022-08-25T16:09:50.664Z,34.27
2022-08-25T16:12:19.183Z,34.27
2022-08-25T16:14:47.566Z,34.25
2022-08-25T16:17:16.587Z,34.21
2022-08-25T16:19:44.898Z,34.19
2022-08-25T16:22:13.104Z,34.06
2022-08-25T16:24:44.504Z,33.89
2022-08-25T16:27:14.284Z,33.78
2022-08-25T16:29:44.336Z,33.66
2022-08-25T16:32:14.135Z,33.57
2022-08-25T16:34:44.219Z,33.48
2022-08-25T16:37:14.662Z,33.38
2022-08-25T16:39:46.073Z,33.44
2022-08-25T16:42:14.595Z,33.55
2022-08-25T16:45:13.921Z,33.63
2022-08-25T16:47:42.702Z,33.64
2022-08-25T16:50:11.471Z,33.57
2022-08-25T16:52:59.338Z,33.37
2022-08-25T16:55:38.646Z,33.02
2022-08-25T16:58:08.738Z,32.80
2022-08-25T17:00:41.585Z,32.66
2022-08-25T17:03:13.134Z,32.46
2022-08-25T17:05:42.866Z,32.17
2022-08-25T17:08:30.595Z,31.80
2022-08-25T17:11:14.820Z,31.24
2022-08-25T17:13:47.781Z,30.78
2022-08-25T17:16:19.386Z,30.37
2022-08-25T17:18:48.744Z,29.97
2022-08-25T17:21:23.817Z,29.53
2022-08-25T17:23:53.312Z,29.07
2022-08-25T17:26:27.567Z,28.62
2022-08-25T17:28:59.376Z,28.15
2022-08-25T17:31:30.011Z,27.68
2022-08-25T17:33:59.586Z,27.30
2022-08-25T17:36:28.631Z,26.98
2022-08-25T17:38:59.737Z,26.63
2022-08-25T17:41:27.692Z,26.26
2022-08-25T17:43:55.710Z,25.92
2022-08-25T17:46:24.341Z,25.61
2022-08-25T17:48:53.189Z,25.31
2022-08-25T17:51:23.133Z,25.04
2022-08-25T17:53:53.029Z,24.78
2022-08-25T17:56:23.543Z,24.89
2022-08-25T17:58:56.104Z,26.25
2022-08-25T18:01:27.629Z,27.10
2022-08-25T18:03:57.529Z,26.51
2022-08-25T18:06:29.504Z,25.78
2022-08-25T18:09:01.549Z,25.25
2022-08-25T18:11:31.547Z,24.87
2022-08-25T18:14:02.503Z,24.58
2022-08-25T18:16:32.524Z,24.34
2022-08-25T18:19:02.716Z,24.16
2022-08-25T18:21:35.106Z,23.99
2022-08-25T18:24:03.364Z,24.23
2022-08-25T18:26:32.297Z,25.63
2022-08-25T18:29:00.543Z,26.34
2022-08-25T18:31:31.840Z,25.77
2022-08-25T18:34:00.244Z,25.09
2022-08-25T18:36:28.806Z,24.60
2022-08-25T18:39:15.494Z,24.26
2022-08-25T18:41:45.086Z,23.97
2022-08-25T18:44:16.443Z,23.78
2022-08-25T18:46:45.532Z,23.99
2022-08-25T18:49:17.668Z,25.47
2022-08-25T18:51:47.389Z,26.23
2022-08-25T18:54:23.321Z,25.59
2022-08-25T18:56:54.857Z,24.87
2022-08-25T18:59:23.699Z,24.35
2022-08-25T19:01:54.236Z,24.00
2022-08-25T19:04:31.336Z,23.70
2022-08-25T19:07:02.931Z,24.16
2022-08-25T19:09:32.075Z,25.48
2022-08-25T19:12:25.459Z,25.80
2022-08-25T19:14:53.573Z,24.98
2022-08-25T19:17:24.666Z,24.39
2022-08-25T19:19:53.007Z,23.99
2022-08-25T19:22:40.314Z,23.71
2022-08-25T19:25:10.266Z,23.92
2022-08-25T19:27:38.935Z,25.28
2022-08-25T19:30:10.183Z,25.96
2022-08-25T19:32:41.877Z,25.33
2022-08-25T19:35:32.469Z,24.60
2022-08-25T19:38:03.226Z,24.04
2022-08-25T19:40:35.927Z,23.68
2022-08-25T19:43:07.530Z,23.42
2022-08-25T19:45:36.778Z,23.19
2022-08-25T19:48:05.924Z,23.36
2022-08-25T19:50:34.905Z,24.75
2022-08-25T19:53:03.911Z,25.64
2022-08-25T19:55:32.316Z,25.04
2022-08-25T19:58:00.674Z,24.29
2022-08-25T20:00:32.861Z,23.77
2022-08-25T20:03:02.360Z,23.39
2022-08-25T20:05:31.459Z,23.39
2022-08-25T20:07:59.904Z,24.63
2022-08-25T20:10:32.740Z,25.43
2022-08-25T20:13:09.368Z,24.68
2022-08-25T20:15:39.051Z,23.87
2022-08-25T20:18:08.257Z,23.25
2022-08-25T20:20:36.840Z,23.06
2022-08-25T20:23:24.221Z,24.13
2022-08-25T20:25:53.194Z,25.03
2022-08-25T20:28:21.385Z,25.14
2022-08-25T20:30:49.549Z,24.19
2022-08-25T20:33:22.506Z,23.28
2022-08-25T20:35:53.080Z,22.64
2022-08-25T20:38:21.569Z,22.63
2022-08-25T20:40:49.590Z,23.86
2022-08-25T20:43:18.152Z,24.64
2022-08-25T20:45:49.280Z,24.04
2022-08-25T20:48:17.976Z,23.31
2022-08-25T20:50:46.113Z,22.80
2022-08-25T20:53:25.795Z,22.45
2022-08-25T20:55:53.895Z,22.27
2022-08-25T20:58:21.953Z,23.26
2022-08-25T21:00:51.644Z,24.21
2022-08-25T21:03:20.813Z,23.76
2022-08-25T21:05:48.699Z,23.17
2022-08-25T21:08:22.151Z,22.72
2022-08-25T21:10:51.988Z,22.42
2022-08-25T21:13:19.917Z,22.19
2022-08-25T21:15:50.715Z,22.40
2022-08-25T21:18:18.773Z,23.84
2022-08-25T21:20:47.330Z,24.64
2022-08-25T21:23:15.340Z,24.07
2022-08-25T21:25:43.691Z,23.36
2022-08-25T21:28:11.699Z,22.86
2022-08-25T21:30:44.813Z,22.49
2022-08-25T21:33:15.614Z,22.22
2022-08-25T21:35:44.066Z,22.00
2022-08-25T21:38:11.937Z,21.82
2022-08-25T21:41:39.995Z,21.67
2022-08-25T21:45:35.801Z,22.68
2022-08-25T21:49:24.842Z,24.59
2022-08-25T21:53:12.809Z,24.65
2022-08-25T21:57:04.207Z,23.40
2022-08-25T22:00:52.562Z,22.63
2022-08-25T22:03:21.329Z,22.21
2022-08-25T22:05:49.402Z,21.99
2022-08-25T22:08:17.817Z,21.81
2022-08-25T22:10:47.626Z,21.64
2022-08-25T22:13:15.537Z,21.49
2022-08-25T22:15:46.314Z,21.37
2022-08-25T22:18:21.246Z,21.60
2022-08-25T22:20:50.427Z,23.03
2022-08-25T22:23:20.135Z,23.95
2022-08-25T22:25:48.752Z,23.42
2022-08-25T22:28:16.800Z,22.73
2022-08-25T22:30:44.833Z,22.24
2022-08-25T22:33:13.492Z,21.88
2022-08-25T22:35:41.674Z,21.60
2022-08-25T22:38:12.475Z,21.36
2022-08-25T22:40:41.312Z,21.17
2022-08-25T22:43:10.912Z,21.36
2022-08-25T22:45:39.318Z,22.86
2022-08-25T22:48:07.364Z,23.73
2022-08-25T22:50:36.680Z,23.17
2022-08-25T22:53:04.695Z,22.46
2022-08-25T22:55:32.883Z,21.95
2022-08-25T22:58:01.076Z,21.61
2022-08-25T23:00:28.984Z,21.38
2022-08-25T23:02:57.066Z,21.18
2022-08-25T23:05:24.984Z,21.31
2022-08-25T23:07:52.931Z,22.67
2022-08-25T23:10:22.839Z,23.63
2022-08-25T23:12:51.035Z,23.11
2022-08-25T23:15:19.490Z,22.41
2022-08-25T23:17:47.519Z,21.90
2022-08-25T23:20:35.207Z,21.54
2022-08-25T23:23:03.283Z,21.24
2022-08-25T23:25:31.435Z,21.54
2022-08-25T23:27:59.324Z,23.10
2022-08-25T23:30:27.323Z,24.40
2022-08-25T23:32:56.533Z,24.89
2022-08-25T23:35:24.481Z,24.29
2022-08-25T23:37:52.352Z,23.66
2022-08-25T23:40:21.743Z,23.21
2022-08-25T23:42:50.494Z,22.87
2022-08-25T23:45:18.566Z,22.61
2022-08-25T23:47:46.562Z,22.43
2022-08-25T23:50:17.911Z,22.67
2022-08-25T23:52:46.330Z,24.17
2022-08-25T23:55:15.043Z,24.99
2022-08-25T23:57:43.589Z,24.33
